Time;durP1;ratioP1;P1;durP2;ratioP2;P2;SDS_P1;SDS_P2;PMS_P1;PMS_P2;Temp;Humidity;BMP_temperature;BMP_pressure;BME280_temperature;BME280_humidity;BME280_pressure;Samples;Min_cycle;Max_cycle;Signal;HPM_P1;HPM_P2
2022/11/15 00:01:38;;;;;;;93.10;31.73;;;;;;;6.48;100.00;100715.06;5017949;28;20068;-68
2022/11/15 00:04:04;;;;;;;81.65;33.67;;;;;;;6.48;100.00;100721.16;5019571;28;20059;-68
2022/11/15 00:06:29;;;;;;;93.00;33.63;;;;;;;6.48;100.00;100718.53;5025847;28;20025;-69
2022/11/15 00:08:58;;;;;;;98.72;31.98;;;;;;;6.48;100.00;100715.06;5035040;28;20365;-69
2022/11/15 00:11:23;;;;;;;99.00;34.30;;;;;;;6.47;100.00;100719.41;5033880;28;20088;-69
2022/11/15 00:13:48;;;;;;;94.78;35.10;;;;;;;6.49;100.00;100714.22;5035255;28;20036;-69
2022/11/15 00:16:14;;;;;;;95.35;33.15;;;;;;;6.47;100.00;100708.03;5022839;28;20056;-70
2022/11/15 00:18:39;;;;;;;88.15;32.92;;;;;;;6.46;100.00;100707.16;5015622;28;20037;-70
2022/11/15 00:21:13;;;;;;;108.80;34.80;;;;;;;6.46;100.00;100706.25;5015244;28;20037;-69
2022/11/15 00:23:38;;;;;;;115.85;35.83;;;;;;;6.46;100.00;100714.09;5014925;28;20036;-69
2022/11/15 00:26:03;;;;;;;111.32;35.83;;;;;;;6.48;100.00;100709.81;5015176;28;20026;-70
2022/11/15 00:28:29;;;;;;;101.43;35.15;;;;;;;6.48;100.00;100704.59;5015118;28;20033;-70
2022/11/15 00:31:04;;;;;;;109.10;35.13;;;;;;;6.49;100.00;100709.88;5019501;28;20025;-69
2022/11/15 00:33:30;;;;;;;112.15;34.80;;;;;;;6.53;100.00;100708.25;5018659;28;20496;-71
2022/11/15 00:36:04;;;;;;;102.28;33.38;;;;;;;6.55;100.00;100702.22;5027435;28;20025;-69
2022/11/15 00:38:37;;;;;;;110.30;34.15;;;;;;;6.54;100.00;100686.50;5032293;28;20029;-69
2022/11/15 00:41:04;;;;;;;99.67;34.67;;;;;;;6.55;100.00;100681.31;5024820;28;20530;-70
2022/11/15 00:43:29;;;;;;;114.57;34.97;;;;;;;6.57;100.00;100681.34;5016787;28;20366;-69
2022/11/15 00:45:55;;;;;;;106.90;31.67;;;;;;;6.58;100.00;100685.75;5032289;28;20029;-70
2022/11/15 00:48:20;;;;;;;99.43;33.38;;;;;;;6.62;100.00;100679.78;5031928;28;20026;-68
2022/11/15 00:50:46;;;;;;;118.10;35.83;;;;;;;6.61;100.00;100674.50;5021361;28;20029;-69
2022/11/15 00:53:11;;;;;;;98.65;34.05;;;;;;;6.63;100.00;100683.25;5028062;28;20456;-70
2022/11/15 00:55:36;;;;;;;105.00;31.85;;;;;;;6.64;100.00;100680.69;5026099;28;20132;-70
2022/11/15 00:58:01;;;;;;;144.52;36.72;;;;;;;6.66;100.00;100679.03;5016400;28;20401;-69
2022/11/15 01:00:28;;;;;;;109.55;33.53;;;;;;;6.66;100.00;100678.09;5024595;28;20025;-70
2022/11/15 01:02:53;;;;;;;127.53;36.15;;;;;;;6.68;100.00;100685.16;5017083;28;20030;-69
2022/11/15 01:05:18;;;;;;;119.25;34.88;;;;;;;6.71;100.00;100677.41;5022952;28;20168;-69
2022/11/15 01:07:44;;;;;;;121.18;33.72;;;;;;;6.75;100.00;100681.00;5013956;28;20028;-69
2022/11/15 01:10:09;;;;;;;104.38;34.67;;;;;;;6.76;100.00;100677.56;5013998;28;20032;-70
2022/11/15 01:12:34;;;;;;;108.90;34.50;;;;;;;6.78;100.00;100672.38;5019840;28;20042;-70
2022/11/15 01:15:00;;;;;;;107.70;33.40;;;;;;;6.80;100.00;100666.34;5022243;28;20022;-70
2022/11/15 01:17:25;;;;;;;107.25;36.75;;;;;;;6.82;100.00;100664.63;5033800;28;20466;-69
2022/11/15 01:19:50;;;;;;;107.97;33.88;;;;;;;6.82;100.00;100655.91;5028531;28;20515;-70
2022/11/15 01:22:16;;;;;;;159.43;36.72;;;;;;;6.85;100.00;100658.63;5016766;28;20108;-70
2022/11/15 01:24:41;;;;;;;123.72;34.83;;;;;;;6.86;100.00;100657.78;5019132;28;20025;-70
2022/11/15 01:27:07;;;;;;;138.00;36.05;;;;;;;6.89;100.00;100656.16;5032655;28;20029;-68
2022/11/15 01:29:32;;;;;;;114.40;35.25;;;;;;;6.89;100.00;100645.69;5030089;28;20052;-69
2022/11/15 01:31:58;;;;;;;122.40;33.80;;;;;;;6.90;100.00;100641.31;5029889;28;20032;-68
2022/11/15 01:34:23;;;;;;;114.18;34.60;;;;;;;6.92;100.00;100639.66;5014042;28;20429;-70
2022/11/15 01:36:48;;;;;;;121.15;38.40;;;;;;;6.94;100.00;100642.31;5013601;28;20037;-69
2022/11/15 01:39:15;;;;;;;132.00;36.55;;;;;;;6.96;100.00;100627.53;5013782;28;20042;-69
2022/11/15 01:41:41;;;;;;;112.30;33.53;;;;;;;6.99;100.00;100641.59;5013857;28;20033;-68
2022/11/15 01:44:34;;;;;;;125.85;36.53;;;;;;;7.00;100.00;100642.47;5014306;28;20034;-69
2022/11/15 01:47:04;;;;;;;130.35;38.80;;;;;;;7.02;100.00;100636.44;5013215;28;20053;-69
2022/11/15 01:49:33;;;;;;;115.68;34.53;;;;;;;7.05;100.00;100631.31;5019290;28;20029;-69
2022/11/15 01:52:01;;;;;;;144.85;38.70;;;;;;;7.06;100.00;100627.81;5019099;28;20030;-69
2022/11/15 01:54:27;;;;;;;133.70;37.25;;;;;;;7.09;100.00;100633.16;5024892;28;20029;-69
2022/11/15 01:56:59;;;;;;;117.07;36.05;;;;;;;7.09;100.00;100622.69;5024148;28;20052;-68
2022/11/15 01:59:25;;;;;;;143.25;38.13;;;;;;;7.13;100.00;100622.78;5014912;28;20057;-71
2022/11/15 02:01:50;;;;;;;118.85;36.42;;;;;;;7.17;100.00;100619.41;5029164;28;20033;-69
2022/11/15 02:04:22;;;;;;;140.73;38.42;;;;;;;7.18;100.00;100615.94;5019831;28;20033;-69
2022/11/15 02:06:48;;;;;;;135.57;39.65;;;;;;;7.20;100.00;100614.22;5028309;28;20029;-69
2022/11/15 02:09:14;;;;;;;153.02;40.83;;;;;;;7.21;100.00;100611.66;5026023;28;20044;-69
2022/11/15 02:11:40;;;;;;;156.65;38.58;;;;;;;7.23;100.00;100598.59;5015222;28;20156;-69
2022/11/15 02:14:07;;;;;;;148.50;40.22;;;;;;;7.26;100.00;100603.94;5012523;28;20499;-70
2022/11/15 02:16:49;;;;;;;132.55;38.97;;;;;;;7.30;100.00;100584.84;5016504;28;20084;-68
2022/11/15 02:19:43;;;;;;;134.27;39.15;;;;;;;7.36;100.00;100590.22;5012908;28;20436;-70
2022/11/15 02:22:29;;;;;;;132.02;39.03;;;;;;;7.39;100.00;100579.84;5012720;28;20426;-69
2022/11/15 02:25:08;;;;;;;140.05;37.78;;;;;;;7.41;100.00;100578.16;5012973;28;20056;-69
2022/11/15 02:27:59;;;;;;;134.15;41.08;;;;;;;7.45;100.00;100584.34;5012659;28;20022;-68
2022/11/15 02:30:37;;;;;;;128.40;39.85;;;;;;;7.50;100.00;100576.59;5019009;28;20479;-69
2022/11/15 02:33:33;;;;;;;127.18;38.20;;;;;;;7.52;100.00;100574.91;5021010;28;20040;-69
2022/11/15 02:36:05;;;;;;;166.05;42.42;;;;;;;7.57;100.00;100568.06;5026171;28;20034;-69
2022/11/15 02:39:01;;;;;;;136.07;40.65;;;;;;;7.61;100.00;100575.16;5020407;28;20032;-68
2022/11/15 02:41:33;;;;;;;156.45;40.10;;;;;;;7.62;100.00;100557.69;5012916;28;20025;-71
2022/11/15 02:44:15;;;;;;;137.90;39.05;;;;;;;7.63;100.00;100568.19;5012694;28;20030;-69
2022/11/15 02:49:28;;;;;;;176.57;44.42;;;;;;;7.66;100.00;100563.03;5012585;28;20121;-70
2022/11/15 02:51:55;;;;;;;145.48;37.60;;;;;;;7.67;100.00;100558.69;5013259;28;20028;-69
2022/11/15 02:54:24;;;;;;;165.52;41.13;;;;;;;7.68;100.00;100569.19;5012500;28;20038;-69
2022/11/15 02:56:52;;;;;;;143.27;40.55;;;;;;;7.70;100.00;100559.63;5025247;28;20473;-68
2022/11/15 02:59:24;;;;;;;150.45;44.35;;;;;;;7.71;100.00;100561.41;5022519;28;20703;-68
2022/11/15 03:02:11;;;;;;;194.02;44.72;;;;;;;7.72;100.00;100557.94;5020643;28;20094;-69
2022/11/15 03:04:56;;;;;;;152.38;42.15;;;;;;;7.72;100.00;100554.47;5015991;28;20124;-68
2022/11/15 03:07:44;;;;;;;148.57;40.00;;;;;;;7.74;100.00;100551.00;5012863;28;20026;-69
2022/11/15 03:10:17;;;;;;;135.27;40.45;;;;;;;7.74;100.00;100553.63;5024558;28;20484;-69
2022/11/15 03:12:53;;;;;;;137.80;40.05;;;;;;;7.76;100.00;100554.56;5012203;28;20033;-70
2022/11/15 03:15:28;;;;;;;135.27;38.53;;;;;;;7.76;100.00;100551.94;5017375;28;20027;-70
2022/11/15 03:18:04;;;;;;;146.23;41.63;;;;;;;7.79;100.00;100552.88;5019032;28;20022;-69
2022/11/15 03:20:30;;;;;;;138.00;40.45;;;;;;;7.82;100.00;100555.56;5016733;28;20104;-68
2022/11/15 03:23:03;;;;;;;133.88;37.67;;;;;;;7.84;100.00;100557.34;5012153;28;20394;-69
2022/11/15 03:25:31;;;;;;;143.23;42.72;;;;;;;7.89;100.00;100554.81;5012131;28;20026;-69
2022/11/15 03:28:01;;;;;;;137.32;41.17;;;;;;;7.91;100.00;100553.16;5016080;28;20116;-69
2022/11/15 03:30:27;;;;;;;151.13;40.13;;;;;;;7.93;100.00;100540.94;5016556;28;20386;-70
2022/11/15 03:32:55;;;;;;;141.30;40.58;;;;;;;7.96;100.00;100540.13;5020531;28;20026;-69
2022/11/15 03:35:23;;;;;;;119.78;37.25;;;;;;;7.99;100.00;100538.47;5013702;28;20025;-67
2022/11/15 03:37:57;;;;;;;133.15;38.28;;;;;;;8.04;100.00;100547.28;5015501;28;20029;-68
2022/11/15 03:40:33;;;;;;;127.40;37.38;;;;;;;8.09;100.00;100545.66;5017226;28;20492;-69
2022/11/15 03:43:08;;;;;;;124.45;38.13;;;;;;;8.15;100.00;100536.19;5034453;28;20035;-69
2022/11/15 03:45:46;;;;;;;115.10;35.85;;;;;;;8.21;100.00;100541.56;5019718;28;20033;-69
2022/11/15 03:48:21;;;;;;;101.55;35.95;;;;;;;8.28;100.00;100536.47;5025719;28;20034;-69
2022/11/15 03:50:49;;;;;;;103.72;34.55;;;;;;;8.34;100.00;100543.59;5015396;28;20500;-69
2022/11/15 03:53:15;;;;;;;122.82;36.10;;;;;;;8.43;100.00;100543.75;5013148;28;20030;-68
2022/11/15 03:55:40;;;;;;;93.50;32.10;;;;;;;8.51;100.00;100545.72;5019146;28;20033;-69
2022/11/15 03:58:06;;;;;;;95.28;36.88;;;;;;;8.54;100.00;100546.63;5015164;28;20049;-68
2022/11/15 04:00:32;;;;;;;100.07;35.38;;;;;;;8.64;100.00;100544.19;5017770;28;20169;-68
2022/11/15 04:02:57;;;;;;;96.57;34.80;;;;;;;8.72;100.00;100546.13;5013797;28;20032;-69
2022/11/15 04:05:23;;;;;;;98.38;33.55;;;;;;;8.81;100.00;100547.16;5025688;28;20460;-68
2022/11/15 04:07:48;;;;;;;111.97;34.55;;;;;;;8.90;100.00;100539.47;5020163;28;20060;-69
2022/11/15 04:10:13;;;;;;;89.50;34.17;;;;;;;8.97;100.00;100533.47;5015485;28;20040;-69
2022/11/15 04:12:43;;;;;;;95.72;34.05;;;;;;;9.04;100.00;100531.84;5042134;28;20030;-69
2022/11/15 04:15:12;;;;;;;92.20;33.00;;;;;;;9.07;100.00;100532.75;5024529;28;20484;-69
2022/11/15 04:17:40;;;;;;;82.25;33.17;;;;;;;9.16;100.00;100537.28;5015207;28;20038;-69
2022/11/15 04:25:51;;;;;;;81.13;28.63;;;;;;;9.31;100.00;100531.41;5016294;28;20435;-69
2022/11/15 04:28:17;;;;;;;77.28;29.15;;;;;;;9.33;100.00;100534.06;5014626;28;20030;-69
2022/11/15 04:30:43;;;;;;;74.32;28.42;;;;;;;9.34;100.00;100525.34;5014074;28;20044;-68
2022/11/15 04:33:08;;;;;;;83.10;30.42;;;;;;;9.33;100.00;100518.31;5020710;28;20112;-68
2022/11/15 04:35:33;;;;;;;68.57;28.15;;;;;;;9.31;100.00;100525.28;5014906;28;20105;-68
2022/11/15 04:37:59;;;;;;;72.32;27.65;;;;;;;9.32;100.00;100506.94;5028696;28;20026;-69
2022/11/15 04:40:25;;;;;;;64.15;27.08;;;;;;;9.36;100.00;100519.25;5029272;28;20041;-69
2022/11/15 04:42:50;;;;;;;77.57;27.52;;;;;;;9.36;100.00;100508.75;5034346;28;20026;-68
2022/11/15 04:45:15;;;;;;;74.18;26.42;;;;;;;9.38;100.00;100509.66;5023720;28;20367;-69
2022/11/15 04:47:44;;;;;;;63.10;24.90;;;;;;;9.39;100.00;100529.81;5032863;28;20037;-69
2022/11/15 04:50:13;;;;;;;57.72;23.23;;;;;;;9.41;100.00;100522.84;5016721;28;20029;-68
2022/11/15 04:52:39;;;;;;;57.63;23.00;;;;;;;9.45;100.00;100529.91;5030488;28;20426;-68
2022/11/15 04:55:04;;;;;;;60.50;24.05;;;;;;;9.47;100.00;100531.66;5021062;28;20029;-68
2022/11/15 04:57:29;;;;;;;63.15;24.27;;;;;;;9.49;100.00;100535.22;5013548;28;20080;-69
2022/11/15 04:59:55;;;;;;;62.03;21.92;;;;;;;9.49;100.00;100525.56;5014338;28;20109;-68
2022/11/15 05:02:20;;;;;;;56.60;21.58;;;;;;;9.53;100.00;100532.63;5015326;28;20034;-70
2022/11/15 05:04:45;;;;;;;57.60;22.65;;;;;;;9.53;100.00;100540.53;5015654;28;20103;-70
2022/11/15 05:07:11;;;;;;;60.60;21.65;;;;;;;9.55;100.00;100551.94;5016673;28;20041;-68
2022/11/15 05:09:36;;;;;;;46.47;21.98;;;;;;;9.59;100.00;100548.50;5028042;28;20052;-69
2022/11/15 05:12:01;;;;;;;55.17;22.67;;;;;;;9.64;100.00;100539.81;5020289;28;20057;-69
2022/11/15 05:14:26;;;;;;;57.13;21.05;;;;;;;9.67;100.00;100546.00;5017424;28;20026;-68
2022/11/15 05:16:52;;;;;;;55.45;21.02;;;;;;;9.67;100.00;100540.75;5014412;28;20097;-68
2022/11/15 05:19:17;;;;;;;42.47;20.27;;;;;;;9.69;100.00;100549.53;5021147;28;20025;-68
2022/11/15 05:21:42;;;;;;;46.78;19.90;;;;;;;9.71;100.00;100545.19;5022203;28;20030;-68
2022/11/15 05:24:11;;;;;;;49.08;21.05;;;;;;;9.73;100.00;100538.22;5013545;28;20022;-68
2022/11/15 05:26:36;;;;;;;56.05;21.17;;;;;;;9.75;100.00;100543.47;5024397;28;20068;-68
2022/11/15 05:29:02;;;;;;;49.88;20.23;;;;;;;9.74;100.00;100542.59;5029356;28;20025;-68
2022/11/15 05:31:28;;;;;;;49.38;20.05;;;;;;;9.74;100.00;100539.97;5023315;28;20115;-70
2022/11/15 05:33:54;;;;;;;47.28;20.50;;;;;;;9.72;100.00;100544.31;5018454;28;20021;-68
2022/11/15 05:36:42;;;;;;;45.78;20.55;;;;;;;9.75;100.00;100554.91;5017754;28;20395;-67
2022/11/15 05:39:08;;;;;;;48.80;18.27;;;;;;;9.79;100.00;100546.19;5013837;28;20021;-68
2022/11/15 05:41:50;;;;;;;44.28;19.63;;;;;;;9.75;100.00;100547.00;5016400;28;20105;-68
2022/11/15 05:44:20;;;;;;;34.03;18.38;;;;;;;9.81;100.00;100545.31;5020271;28;20103;-68
2022/11/15 05:46:47;;;;;;;45.10;19.40;;;;;;;9.80;100.00;100541.81;5013808;28;20573;-68
2022/11/15 05:49:18;;;;;;;43.80;18.30;;;;;;;9.82;100.00;100550.63;5019327;28;20393;-69
2022/11/15 05:51:47;;;;;;;39.78;18.15;;;;;;;9.85;100.00;100552.38;5021503;28;20025;-68
2022/11/15 05:54:13;;;;;;;38.80;17.42;;;;;;;9.82;100.00;100552.34;5013786;28;20465;-69
2022/11/15 05:56:39;;;;;;;38.72;18.67;;;;;;;9.83;100.00;100544.47;5031437;28;20326;-68
2022/11/15 05:59:05;;;;;;;33.38;17.40;;;;;;;9.81;100.00;100548.84;5030795;28;20032;-68
2022/11/15 06:01:30;;;;;;;31.58;17.83;;;;;;;9.82;100.00;100549.72;5022726;28;20108;-68
2022/11/15 06:03:56;;;;;;;30.25;16.67;;;;;;;9.77;100.00;100557.53;5028683;28;20113;-68
2022/11/15 06:06:21;;;;;;;39.88;17.10;;;;;;;9.73;100.00;100560.97;5031109;28;20121;-69
2022/11/15 06:08:47;;;;;;;40.50;16.88;;;;;;;9.77;100.00;100568.91;5013362;28;20049;-69
2022/11/15 06:11:13;;;;;;;26.13;14.68;;;;;;;9.75;100.00;100569.75;5016682;28;20420;-69
2022/11/15 06:13:39;;;;;;;35.00;14.93;;;;;;;9.75;100.00;100567.13;5013761;28;20113;-69
2022/11/15 06:16:05;;;;;;;34.55;15.02;;;;;;;9.73;100.00;100566.25;5018677;28;20022;-68
2022/11/15 06:18:33;;;;;;;28.20;13.68;;;;;;;9.73;100.00;100560.97;5023652;28;20046;-70
2022/11/15 06:20:59;;;;;;;29.25;13.38;;;;;;;9.74;100.00;100560.09;5016661;28;20029;-69
2022/11/15 06:23:25;;;;;;;30.60;13.23;;;;;;;9.72;100.00;100570.59;5013630;28;20029;-75
2022/11/15 06:25:50;;;;;;;24.42;12.57;;;;;;;9.70;100.00;100577.56;5022275;28;20031;-68
2022/11/15 06:28:15;;;;;;;30.27;12.10;;;;;;;9.62;100.00;100573.94;5018322;28;20091;-68
2022/11/15 06:30:41;;;;;;;21.77;11.25;;;;;;;9.61;100.00;100566.91;5016714;28;20033;-72
2022/11/15 06:33:08;;;;;;;22.95;10.30;;;;;;;9.58;100.00;100569.50;5017459;28;20025;-68
2022/11/15 06:35:35;;;;;;;22.25;9.90;;;;;;;9.60;100.00;100573.03;5016711;28;20076;-68
2022/11/15 06:38:09;;;;;;;23.77;9.93;;;;;;;9.59;100.00;100574.78;5020313;28;20030;-68
2022/11/15 06:40:38;;;;;;;24.27;10.05;;;;;;;9.50;100.00;100565.88;5025101;28;20473;-67
2022/11/15 06:43:05;;;;;;;18.33;8.98;;;;;;;9.47;100.00;100573.69;5022955;28;20397;-67
2022/11/15 06:45:31;;;;;;;23.38;9.27;;;;;;;9.38;100.00;100575.28;5012572;28;20018;-67
2022/11/15 06:47:56;;;;;;;19.00;7.63;;;;;;;9.34;100.00;100578.72;5020905;28;20528;-69
2022/11/15 06:50:22;;;;;;;18.02;7.90;;;;;;;9.30;100.00;100582.16;5021512;28;20136;-68
2022/11/15 06:52:47;;;;;;;16.65;7.30;;;;;;;9.28;100.00;100595.25;5018669;28;20470;-68
2022/11/15 06:55:12;;;;;;;16.98;7.07;;;;;;;9.29;100.00;100596.13;5025303;28;20032;-66
2022/11/15 06:57:46;;;;;;;20.70;7.95;;;;;;;9.30;100.00;100592.66;5038106;28;20128;-68
2022/11/15 07:00:12;;;;;;;16.42;7.22;;;;;;;9.33;100.00;100597.97;5037532;28;20029;-68
2022/11/15 07:02:38;;;;;;;12.13;6.50;;;;;;;9.37;100.00;100594.56;5036476;28;20040;-68
2022/11/15 07:05:03;;;;;;;17.13;7.00;;;;;;;9.37;100.00;100594.56;5042751;28;20044;-68
2022/11/15 07:07:28;;;;;;;16.23;7.45;;;;;;;9.38;100.00;100587.56;5037605;28;21505;-68
2022/11/15 07:09:54;;;;;;;22.13;6.78;;;;;;;9.43;100.00;100588.53;5032375;28;20025;-68
2022/11/15 07:12:19;;;;;;;23.83;7.88;;;;;;;9.41;100.00;100583.25;5046364;28;20183;-70
2022/11/15 07:14:44;;;;;;;19.88;7.60;;;;;;;9.41;100.00;100584.97;5034909;28;20036;-68
2022/11/15 07:17:10;;;;;;;17.58;7.57;;;;;;;9.42;100.00;100581.50;5031229;28;20029;-67
2022/11/15 07:19:35;;;;;;;17.88;6.13;;;;;;;9.43;100.00;100593.78;5028557;28;20029;-68
2022/11/15 07:22:00;;;;;;;20.20;7.22;;;;;;;9.45;100.00;100595.56;5025044;28;20034;-68
2022/11/15 07:24:25;;;;;;;17.70;6.22;;;;;;;9.48;100.00;100593.84;5025141;28;20512;-68
2022/11/15 07:26:51;;;;;;;17.48;6.68;;;;;;;9.45;100.00;100587.69;5038093;28;20029;-67
2022/11/15 07:29:16;;;;;;;13.48;6.53;;;;;;;9.47;100.00;100589.44;5024191;28;20045;-67
2022/11/15 07:31:41;;;;;;;13.25;6.53;;;;;;;9.46;100.00;100599.06;5030853;28;20485;-67
2022/11/15 07:34:07;;;;;;;12.73;6.22;;;;;;;9.49;100.00;100583.34;5019518;28;20079;-67
2022/11/15 07:36:32;;;;;;;14.85;6.85;;;;;;;9.47;100.00;100576.31;5019314;28;20022;-69
2022/11/15 07:38:57;;;;;;;15.38;5.63;;;;;;;9.50;100.00;100582.50;5025107;28;20118;-67
2022/11/15 07:41:23;;;;;;;11.82;5.15;;;;;;;9.50;100.00;100592.13;5021753;28;20026;-68
2022/11/15 07:43:51;;;;;;;12.63;5.00;;;;;;;9.53;100.00;100594.81;5020783;28;20023;-68
2022/11/15 07:46:17;;;;;;;14.10;5.28;;;;;;;9.51;100.00;100591.25;5033963;28;20032;-69
2022/11/15 07:48:42;;;;;;;10.70;5.63;;;;;;;9.47;100.00;100584.19;5027335;28;20022;-68
2022/11/15 07:51:11;;;;;;;14.63;4.88;;;;;;;9.44;100.00;100575.41;5031153;28;20472;-68
2022/11/15 07:53:36;;;;;;;18.35;5.20;;;;;;;9.49;100.00;100577.22;5055442;28;20354;-69
2022/11/15 07:56:02;;;;;;;16.15;5.13;;;;;;;9.44;100.00;100580.66;5037310;28;20024;-68
2022/11/15 07:58:27;;;;;;;11.65;5.30;;;;;;;9.45;100.00;100571.94;5043103;28;20056;-70
2022/11/15 08:00:52;;;;;;;13.80;5.75;;;;;;;9.42;100.00;100574.50;5041334;28;20021;-68
2022/11/15 08:03:18;;;;;;;12.57;5.10;;;;;;;9.41;100.00;100570.13;5016958;28;20021;-68
2022/11/15 08:05:50;;;;;;;12.48;5.50;;;;;;;9.41;100.00;100567.50;5024933;28;20117;-69
2022/11/15 08:08:16;;;;;;;15.03;5.20;;;;;;;9.43;100.00;100571.00;5015384;28;20061;-68
2022/11/15 08:10:41;;;;;;;11.75;5.40;;;;;;;9.43;100.00;100563.13;5020407;28;20052;-67
2022/11/15 08:13:09;;;;;;;13.60;5.40;;;;;;;9.44;100.00;100558.75;5031239;28;20034;-68
2022/11/15 08:15:35;;;;;;;9.32;4.60;;;;;;;9.45;100.00;100556.19;5024867;28;20013;-68
2022/11/15 08:18:04;;;;;;;14.65;5.85;;;;;;;9.53;100.00;100566.78;5025401;28;20083;-67
2022/11/15 08:20:30;;;;;;;13.40;5.03;;;;;;;9.61;100.00;100566.91;5020794;28;20367;-67
2022/11/15 08:23:00;;;;;;;18.95;5.72;;;;;;;9.64;100.00;100564.34;5016517;28;20034;-68
2022/11/15 08:25:27;;;;;;;13.25;4.63;;;;;;;9.71;100.00;100547.81;5023489;28;20025;-68
2022/11/15 08:27:54;;;;;;;16.48;5.07;;;;;;;9.78;100.00;100554.94;5029123;28;20049;-68
2022/11/15 08:30:20;;;;;;;12.27;5.82;;;;;;;9.86;100.00;100548.91;5029784;28;20047;-68
2022/11/15 08:32:46;;;;;;;12.38;5.32;;;;;;;9.90;100.00;100540.19;5026310;28;20060;-68
2022/11/15 08:35:11;;;;;;;15.45;5.95;;;;;;;9.94;100.00;100544.63;5042280;28;20033;-69
2022/11/15 08:37:37;;;;;;;19.83;6.60;;;;;;;9.93;100.00;100535.00;5028275;28;20025;-68
2022/11/15 08:40:03;;;;;;;14.07;6.65;;;;;;;9.95;100.00;100538.53;5039648;28;20036;-67
2022/11/15 08:42:28;;;;;;;13.27;6.63;;;;;;;10.00;100.00;100539.47;5025398;28;20365;-68
2022/11/15 08:44:54;;;;;;;18.10;6.45;;;;;;;10.03;100.00;100539.50;5027664;28;20022;-67
2022/11/15 08:47:19;;;;;;;16.02;6.60;;;;;;;10.09;100.00;100538.69;5037604;28;20021;-69
2022/11/15 08:49:44;;;;;;;17.23;6.65;;;;;;;10.09;100.00;100533.44;5025527;28;20036;-67
2022/11/15 08:52:10;;;;;;;11.80;5.90;;;;;;;10.11;100.00;100531.72;5044120;28;20025;-67
2022/11/15 08:54:35;;;;;;;9.90;5.63;;;;;;;10.15;100.00;100527.38;5029038;28;20053;-68
2022/11/15 08:57:00;;;;;;;15.80;6.30;;;;;;;10.16;100.00;100531.78;5027112;28;20408;-67
2022/11/15 08:59:25;;;;;;;15.57;6.47;;;;;;;10.20;100.00;100530.97;5036247;28;20028;-67
2022/11/15 09:01:51;;;;;;;12.50;5.85;;;;;;;10.29;100.00;100529.34;5024230;28;20026;-66
2022/11/15 09:04:16;;;;;;;11.52;6.45;;;;;;;10.33;100.00;100517.09;5035683;28;20120;-68
2022/11/15 09:06:41;;;;;;;9.80;5.63;;;;;;;10.45;100.00;100538.31;5030687;28;20033;-69
2022/11/15 09:09:07;;;;;;;11.20;5.82;;;;;;;10.65;100.00;100535.06;5033001;28;20045;-69
2022/11/15 09:11:32;;;;;;;14.15;5.63;;;;;;;10.84;100.00;100535.25;5030677;28;20091;-67
2022/11/15 09:13:57;;;;;;;8.43;5.05;;;;;;;11.04;100.00;100531.09;5026477;28;20033;-69
2022/11/15 09:16:23;;;;;;;14.60;5.18;;;;;;;11.24;100.00;100535.63;5025710;28;20040;-68
2022/11/15 09:18:48;;;;;;;9.35;5.07;;;;;;;11.41;100.00;100538.44;5030448;28;20048;-70
2022/11/15 09:21:14;;;;;;;12.43;4.97;;;;;;;11.40;100.00;100545.44;5031002;28;20441;-69
2022/11/15 09:23:39;;;;;;;9.93;4.25;;;;;;;11.48;100.00;100530.56;5029578;28;20439;-68
2022/11/15 09:26:05;;;;;;;14.93;5.03;;;;;;;11.45;100.00;100527.91;5027729;28;20501;-68
2022/11/15 09:28:32;;;;;;;6.90;4.85;;;;;;;11.45;100.00;100530.56;5026212;28;20038;-68
2022/11/15 09:30:59;;;;;;;9.07;4.47;;;;;;;11.50;100.00;100538.47;5024054;28;20476;-68
2022/11/15 09:33:25;;;;;;;12.43;4.90;;;;;;;11.59;100.00;100535.03;5019874;28;20049;-67
2022/11/15 09:35:50;;;;;;;13.65;4.30;;;;;;;11.79;100.00;100541.34;5031955;28;20048;-68
2022/11/15 09:38:15;;;;;;;11.40;4.70;;;;;;;11.78;100.00;100536.94;5029264;28;20029;-68
2022/11/15 09:40:41;;;;;;;13.50;4.80;;;;;;;11.79;100.00;100536.06;5025410;28;20030;-68
2022/11/15 09:43:39;;;;;;;10.95;4.45;;;;;;;11.61;100.00;100535.94;5045893;28;20060;-68
2022/11/15 09:46:42;;;;;;;9.77;4.30;;;;;;;11.56;100.00;100532.41;5013983;28;20073;-67
2022/11/15 09:49:11;;;;;;;5.97;3.75;;;;;;;11.60;100.00;100524.50;5027644;28;20025;-68
2022/11/15 09:51:46;;;;;;;13.88;4.43;;;;;;;11.77;100.00;100529.91;5039514;28;20032;-68
2022/11/15 09:54:23;;;;;;;8.32;3.75;;;;;;;12.00;100.00;100526.53;5042575;28;20071;-67
2022/11/15 09:56:50;;;;;;;7.50;3.70;;;;;;;12.12;100.00;100507.28;5018615;28;20068;-67
2022/11/15 09:59:36;;;;;;;6.82;3.67;;;;;;;12.30;100.00;100509.09;5020076;28;20026;-68
2022/11/15 10:02:07;;;;;;;9.43;3.83;;;;;;;12.38;100.00;100512.66;5025124;28;20041;-68
2022/11/15 10:04:33;;;;;;;8.70;3.08;;;;;;;12.67;100.00;100490.75;5028087;28;20033;-68
2022/11/15 10:07:16;;;;;;;12.15;3.63;;;;;;;12.89;100.00;100489.03;5037115;28;20029;-68
2022/11/15 10:09:51;;;;;;;5.28;2.78;;;;;;;12.85;100.00;100494.31;5031534;28;20487;-67
2022/11/15 10:12:17;;;;;;;8.02;4.53;;;;;;;12.87;100.00;100481.97;5035856;28;20031;-67
2022/11/15 10:14:43;;;;;;;5.32;2.75;;;;;;;13.02;100.00;100503.13;5021441;28;20028;-68
2022/11/15 10:17:27;;;;;;;10.02;3.10;;;;;;;13.14;100.00;100489.94;5028267;28;20381;-67
2022/11/15 10:19:56;;;;;;;5.45;2.58;;;;;;;13.34;100.00;100483.75;5026721;28;20037;-68
2022/11/15 10:22:28;;;;;;;13.05;2.92;;;;;;;13.60;100.00;100486.41;5038253;28;20029;-69
2022/11/15 10:25:13;;;;;;;7.43;2.70;;;;;;;13.65;100.00;100478.47;5033043;28;20029;-67
2022/11/15 10:27:41;;;;;;;9.05;2.58;;;;;;;13.83;100.00;100478.41;5034567;28;20044;-67
2022/11/15 10:30:16;;;;;;;5.95;2.10;;;;;;;14.07;100.00;100465.13;5032177;28;20474;-69
2022/11/15 10:32:43;;;;;;;11.57;2.42;;;;;;;14.23;100.00;100481.81;5030330;28;20030;-68
2022/11/15 10:35:29;;;;;;;7.43;2.67;;;;;;;14.44;100.00;100464.94;5040221;28;20033;-69
2022/11/15 10:38:09;;;;;;;4.82;2.15;;;;;;;14.77;100.00;100469.19;5030344;28;20087;-69
2022/11/15 10:40:35;;;;;;;4.97;2.15;;;;;;;15.04;96.96;100451.31;5032026;28;20076;-68
2022/11/15 10:43:10;;;;;;;6.47;2.30;;;;;;;15.15;94.28;100445.94;5029424;28;20030;-69
2022/11/15 10:45:36;;;;;;;15.93;2.78;;;;;;;15.20;91.87;100452.06;5037829;28;20029;-68
2022/11/15 10:48:13;;;;;;;5.93;2.28;;;;;;;14.96;93.15;100442.56;5037278;28;20468;-68
2022/11/15 10:50:41;;;;;;;5.07;2.65;;;;;;;14.69;93.59;100433.94;5044745;28;20028;-69
2022/11/15 10:53:20;;;;;;;6.40;2.30;;;;;;;14.64;95.39;100435.75;5037591;28;20056;-68
2022/11/15 10:55:48;;;;;;;5.22;2.05;;;;;;;14.69;94.64;100441.91;5041227;28;20021;-68
2022/11/15 10:58:31;;;;;;;4.90;2.00;;;;;;;15.03;92.08;100444.28;5033151;28;20351;-68
2022/11/15 11:01:09;;;;;;;8.13;2.53;;;;;;;15.14;92.36;100436.25;5036254;28;20029;-70
2022/11/15 11:03:38;;;;;;;8.15;1.90;;;;;;;14.92;91.64;100451.41;5029466;28;20104;-68
2022/11/15 11:06:06;;;;;;;9.93;2.75;;;;;;;14.64;94.41;100452.50;5026711;28;20039;-68
2022/11/15 11:08:32;;;;;;;7.93;2.38;;;;;;;14.16;98.05;100430.66;5046279;28;20094;-68
2022/11/15 11:10:59;;;;;;;5.35;2.53;;;;;;;14.05;99.46;100425.44;5041472;28;20022;-69
2022/11/15 11:13:37;;;;;;;7.82;1.90;;;;;;;13.80;100.00;100425.53;5048486;28;20018;-69
2022/11/15 11:16:14;;;;;;;5.80;2.25;;;;;;;13.74;100.00;100420.28;5041187;28;20024;-68
2022/11/15 11:19:01;;;;;;;10.57;2.47;;;;;;;13.69;100.00;100414.13;5037152;28;20136;-70
2022/11/15 11:21:39;;;;;;;10.00;3.25;;;;;;;13.61;100.00;100398.28;5032628;28;20040;-69
2022/11/15 11:24:41;;;;;;;9.25;2.10;;;;;;;13.60;100.00;100388.56;5035735;28;20029;-69
2022/11/15 11:27:19;;;;;;;5.38;1.92;;;;;;;13.85;100.00;100383.22;5037813;28;20037;-69